sensor_id;sensor_type;location;lat;lon;timestamp;P1;durP1;ratioP1;P2;durP2;ratioP2
21554;SDS011;10938;44.794;-0.676;2023-05-07T00:02:04;15.27;;;3.35;;
21554;SDS011;10938;44.794;-0.676;2023-05-07T00:04:29;12.30;;;3.63;;
21554;SDS011;10938;44.794;-0.676;2023-05-07T00:07:00;16.75;;;3.80;;
21554;SDS011;10938;44.794;-0.676;2023-05-07T00:09:26;12.48;;;3.17;;
21554;SDS011;10938;44.794;-0.676;2023-05-07T00:11:51;15.50;;;3.43;;
21554;SDS011;10938;44.794;-0.676;2023-05-07T00:14:16;11.57;;;3.07;;
21554;SDS011;10938;44.794;-0.676;2023-05-07T00:16:42;15.33;;;3.10;;
21554;SDS011;10938;44.794;-0.676;2023-05-07T00:19:07;9.85;;;2.67;;
21554;SDS011;10938;44.794;-0.676;2023-05-07T00:21:32;12.15;;;3.10;;
21554;SDS011;10938;44.794;-0.676;2023-05-07T00:23:58;11.48;;;2.75;;
21554;SDS011;10938;44.794;-0.676;2023-05-07T00:26:23;11.30;;;2.80;;
21554;SDS011;10938;44.794;-0.676;2023-05-07T00:28:51;12.55;;;3.28;;
21554;SDS011;10938;44.794;-0.676;2023-05-07T00:31:16;12.32;;;3.00;;
21554;SDS011;10938;44.794;-0.676;2023-05-07T00:33:42;14.80;;;3.50;;
21554;SDS011;10938;44.794;-0.676;2023-05-07T00:36:07;14.30;;;3.47;;
21554;SDS011;10938;44.794;-0.676;2023-05-07T00:38:33;11.77;;;2.83;;
21554;SDS011;10938;44.794;-0.676;2023-05-07T00:40:58;14.73;;;3.63;;
21554;SDS011;10938;44.794;-0.676;2023-05-07T00:43:23;13.10;;;3.40;;
21554;SDS011;10938;44.794;-0.676;2023-05-07T00:45:49;12.20;;;3.00;;
21554;SDS011;10938;44.794;-0.676;2023-05-07T00:48:15;11.70;;;3.17;;
21554;SDS011;10938;44.794;-0.676;2023-05-07T00:50:40;13.27;;;3.33;;
21554;SDS011;10938;44.794;-0.676;2023-05-07T00:53:06;14.70;;;3.83;;
21554;SDS011;10938;44.794;-0.676;2023-05-07T00:55:32;11.40;;;3.10;;
21554;SDS011;10938;44.794;-0.676;2023-05-07T00:57:57;9.82;;;2.70;;
21554;SDS011;10938;44.794;-0.676;2023-05-07T01:05:55;11.05;;;3.08;;
21554;SDS011;10938;44.794;-0.676;2023-05-07T01:08:22;12.10;;;3.50;;
21554;SDS011;10938;44.794;-0.676;2023-05-07T01:10:49;12.77;;;3.05;;
21554;SDS011;10938;44.794;-0.676;2023-05-07T01:13:15;11.93;;;3.25;;
21554;SDS011;10938;44.794;-0.676;2023-05-07T01:15:42;13.32;;;3.75;;
21554;SDS011;10938;44.794;-0.676;2023-05-07T01:18:07;10.70;;;2.55;;
21554;SDS011;10938;44.794;-0.676;2023-05-07T01:20:33;16.23;;;3.53;;
21554;SDS011;10938;44.794;-0.676;2023-05-07T01:22:58;15.60;;;3.30;;
21554;SDS011;10938;44.794;-0.676;2023-05-07T01:25:25;11.93;;;2.85;;
21554;SDS011;10938;44.794;-0.676;2023-05-07T01:27:50;14.27;;;3.17;;
21554;SDS011;10938;44.794;-0.676;2023-05-07T01:30:16;13.57;;;3.50;;
21554;SDS011;10938;44.794;-0.676;2023-05-07T01:33:06;11.73;;;3.30;;
21554;SDS011;10938;44.794;-0.676;2023-05-07T01:35:30;12.70;;;3.08;;
21554;SDS011;10938;44.794;-0.676;2023-05-07T01:37:57;14.07;;;3.63;;
21554;SDS011;10938;44.794;-0.676;2023-05-07T01:40:24;15.93;;;3.63;;
21554;SDS011;10938;44.794;-0.676;2023-05-07T01:42:49;11.40;;;3.30;;
21554;SDS011;10938;44.794;-0.676;2023-05-07T01:45:15;17.65;;;3.67;;
21554;SDS011;10938;44.794;-0.676;2023-05-07T01:47:40;18.00;;;4.22;;
21554;SDS011;10938;44.794;-0.676;2023-05-07T01:50:06;16.42;;;3.60;;
21554;SDS011;10938;44.794;-0.676;2023-05-07T01:52:33;13.65;;;3.53;;
21554;SDS011;10938;44.794;-0.676;2023-05-07T01:54:58;15.68;;;3.63;;
21554;SDS011;10938;44.794;-0.676;2023-05-07T01:57:24;12.95;;;4.28;;
21554;SDS011;10938;44.794;-0.676;2023-05-07T01:59:49;12.85;;;3.65;;
21554;SDS011;10938;44.794;-0.676;2023-05-07T02:02:18;14.52;;;3.78;;
21554;SDS011;10938;44.794;-0.676;2023-05-07T02:04:43;14.23;;;3.65;;
21554;SDS011;10938;44.794;-0.676;2023-05-07T02:07:08;18.35;;;4.10;;
21554;SDS011;10938;44.794;-0.676;2023-05-07T02:09:34;17.55;;;4.18;;
21554;SDS011;10938;44.794;-0.676;2023-05-07T02:11:59;16.23;;;4.22;;
21554;SDS011;10938;44.794;-0.676;2023-05-07T02:14:24;14.45;;;3.92;;
21554;SDS011;10938;44.794;-0.676;2023-05-07T02:16:51;14.82;;;3.55;;
21554;SDS011;10938;44.794;-0.676;2023-05-07T02:19:19;17.97;;;4.27;;
21554;SDS011;10938;44.794;-0.676;2023-05-07T02:21:46;20.27;;;4.32;;
21554;SDS011;10938;44.794;-0.676;2023-05-07T02:24:11;18.10;;;4.22;;
21554;SDS011;10938;44.794;-0.676;2023-05-07T02:26:36;19.98;;;4.47;;
21554;SDS011;10938;44.794;-0.676;2023-05-07T02:29:02;21.50;;;4.68;;
21554;SDS011;10938;44.794;-0.676;2023-05-07T02:31:27;20.05;;;4.50;;
21554;SDS011;10938;44.794;-0.676;2023-05-07T02:33:52;19.10;;;4.50;;
21554;SDS011;10938;44.794;-0.676;2023-05-07T02:36:18;20.47;;;4.13;;
21554;SDS011;10938;44.794;-0.676;2023-05-07T02:38:43;19.07;;;4.93;;
21554;SDS011;10938;44.794;-0.676;2023-05-07T02:41:08;17.90;;;4.53;;
21554;SDS011;10938;44.794;-0.676;2023-05-07T02:43:34;21.27;;;4.63;;
21554;SDS011;10938;44.794;-0.676;2023-05-07T02:46:08;18.88;;;4.30;;
21554;SDS011;10938;44.794;-0.676;2023-05-07T02:48:34;16.60;;;4.50;;
21554;SDS011;10938;44.794;-0.676;2023-05-07T02:50:59;18.65;;;4.55;;
21554;SDS011;10938;44.794;-0.676;2023-05-07T02:53:25;15.93;;;3.88;;
21554;SDS011;10938;44.794;-0.676;2023-05-07T02:55:52;19.52;;;4.40;;
21554;SDS011;10938;44.794;-0.676;2023-05-07T02:58:17;22.98;;;4.55;;
21554;SDS011;10938;44.794;-0.676;2023-05-07T03:00:44;15.57;;;4.13;;
21554;SDS011;10938;44.794;-0.676;2023-05-07T03:03:10;15.85;;;4.22;;
21554;SDS011;10938;44.794;-0.676;2023-05-07T03:05:36;14.23;;;4.20;;
21554;SDS011;10938;44.794;-0.676;2023-05-07T03:08:01;20.80;;;4.90;;
21554;SDS011;10938;44.794;-0.676;2023-05-07T03:10:27;20.13;;;4.30;;
21554;SDS011;10938;44.794;-0.676;2023-05-07T03:12:52;19.50;;;4.22;;
21554;SDS011;10938;44.794;-0.676;2023-05-07T03:15:17;15.85;;;4.05;;
21554;SDS011;10938;44.794;-0.676;2023-05-07T03:17:43;21.58;;;4.38;;
21554;SDS011;10938;44.794;-0.676;2023-05-07T03:20:08;18.20;;;5.17;;
21554;SDS011;10938;44.794;-0.676;2023-05-07T03:22:34;20.50;;;4.88;;
21554;SDS011;10938;44.794;-0.676;2023-05-07T03:24:59;15.48;;;3.80;;
21554;SDS011;10938;44.794;-0.676;2023-05-07T03:27:25;19.53;;;4.20;;
21554;SDS011;10938;44.794;-0.676;2023-05-07T03:29:50;18.77;;;4.65;;
21554;SDS011;10938;44.794;-0.676;2023-05-07T03:32:15;21.33;;;4.20;;
21554;SDS011;10938;44.794;-0.676;2023-05-07T03:34:41;15.15;;;3.50;;
21554;SDS011;10938;44.794;-0.676;2023-05-07T03:37:07;19.23;;;4.15;;
21554;SDS011;10938;44.794;-0.676;2023-05-07T03:39:32;22.73;;;5.13;;
21554;SDS011;10938;44.794;-0.676;2023-05-07T03:41:57;17.35;;;4.10;;
21554;SDS011;10938;44.794;-0.676;2023-05-07T03:44:23;16.33;;;4.35;;
21554;SDS011;10938;44.794;-0.676;2023-05-07T03:46:48;17.25;;;4.03;;
21554;SDS011;10938;44.794;-0.676;2023-05-07T03:49:13;12.15;;;3.50;;
21554;SDS011;10938;44.794;-0.676;2023-05-07T03:51:39;17.30;;;4.43;;
21554;SDS011;10938;44.794;-0.676;2023-05-07T03:54:04;15.37;;;4.07;;
21554;SDS011;10938;44.794;-0.676;2023-05-07T03:56:29;16.70;;;4.13;;
21554;SDS011;10938;44.794;-0.676;2023-05-07T03:58:56;20.63;;;4.35;;
21554;SDS011;10938;44.794;-0.676;2023-05-07T04:01:21;17.40;;;4.10;;
21554;SDS011;10938;44.794;-0.676;2023-05-07T04:03:47;12.80;;;3.95;;
21554;SDS011;10938;44.794;-0.676;2023-05-07T04:06:12;18.10;;;4.23;;
21554;SDS011;10938;44.794;-0.676;2023-05-07T04:08:37;12.98;;;3.63;;
21554;SDS011;10938;44.794;-0.676;2023-05-07T04:11:02;17.67;;;4.30;;
21554;SDS011;10938;44.794;-0.676;2023-05-07T04:13:28;24.25;;;5.00;;
21554;SDS011;10938;44.794;-0.676;2023-05-07T04:15:54;17.38;;;4.07;;
21554;SDS011;10938;44.794;-0.676;2023-05-07T04:18:20;19.55;;;3.67;;
21554;SDS011;10938;44.794;-0.676;2023-05-07T04:20:46;18.27;;;4.22;;
21554;SDS011;10938;44.794;-0.676;2023-05-07T04:23:12;14.40;;;4.03;;
21554;SDS011;10938;44.794;-0.676;2023-05-07T04:25:37;16.23;;;4.00;;
21554;SDS011;10938;44.794;-0.676;2023-05-07T04:28:02;14.50;;;3.90;;
21554;SDS011;10938;44.794;-0.676;2023-05-07T04:30:28;20.98;;;4.43;;
21554;SDS011;10938;44.794;-0.676;2023-05-07T04:32:53;10.57;;;3.37;;
21554;SDS011;10938;44.794;-0.676;2023-05-07T04:35:18;13.30;;;3.80;;
21554;SDS011;10938;44.794;-0.676;2023-05-07T04:37:43;12.27;;;3.53;;
21554;SDS011;10938;44.794;-0.676;2023-05-07T04:40:09;19.55;;;4.05;;
21554;SDS011;10938;44.794;-0.676;2023-05-07T04:42:35;15.25;;;3.83;;
21554;SDS011;10938;44.794;-0.676;2023-05-07T04:45:00;14.85;;;4.05;;
21554;SDS011;10938;44.794;-0.676;2023-05-07T04:47:26;16.02;;;4.28;;
21554;SDS011;10938;44.794;-0.676;2023-05-07T04:49:51;18.70;;;5.50;;
21554;SDS011;10938;44.794;-0.676;2023-05-07T04:52:16;16.80;;;4.27;;
21554;SDS011;10938;44.794;-0.676;2023-05-07T04:54:42;22.47;;;5.40;;
21554;SDS011;10938;44.794;-0.676;2023-05-07T04:57:07;16.13;;;4.17;;
21554;SDS011;10938;44.794;-0.676;2023-05-07T04:59:32;11.93;;;3.53;;
21554;SDS011;10938;44.794;-0.676;2023-05-07T05:01:58;18.27;;;4.60;;
21554;SDS011;10938;44.794;-0.676;2023-05-07T05:04:23;15.60;;;4.73;;
21554;SDS011;10938;44.794;-0.676;2023-05-07T05:06:48;18.50;;;4.57;;
21554;SDS011;10938;44.794;-0.676;2023-05-07T05:09:13;18.93;;;4.43;;
21554;SDS011;10938;44.794;-0.676;2023-05-07T05:11:39;20.38;;;4.70;;
21554;SDS011;10938;44.794;-0.676;2023-05-07T05:14:04;20.57;;;4.73;;
21554;SDS011;10938;44.794;-0.676;2023-05-07T05:16:30;20.27;;;4.43;;
21554;SDS011;10938;44.794;-0.676;2023-05-07T05:18:55;16.45;;;4.40;;
21554;SDS011;10938;44.794;-0.676;2023-05-07T05:21:21;12.95;;;4.03;;
21554;SDS011;10938;44.794;-0.676;2023-05-07T05:23:46;14.43;;;3.90;;
21554;SDS011;10938;44.794;-0.676;2023-05-07T05:26:11;15.63;;;3.80;;
21554;SDS011;10938;44.794;-0.676;2023-05-07T05:28:37;16.13;;;3.93;;
21554;SDS011;10938;44.794;-0.676;2023-05-07T05:31:02;20.60;;;5.03;;
21554;SDS011;10938;44.794;-0.676;2023-05-07T05:33:27;17.40;;;4.13;;
21554;SDS011;10938;44.794;-0.676;2023-05-07T05:35:55;16.87;;;4.40;;
21554;SDS011;10938;44.794;-0.676;2023-05-07T05:38:21;18.73;;;4.70;;
21554;SDS011;10938;44.794;-0.676;2023-05-07T05:40:46;13.57;;;4.50;;
21554;SDS011;10938;44.794;-0.676;2023-05-07T05:43:11;14.48;;;4.03;;
21554;SDS011;10938;44.794;-0.676;2023-05-07T05:45:37;17.80;;;4.53;;
21554;SDS011;10938;44.794;-0.676;2023-05-07T05:48:02;19.27;;;4.00;;
21554;SDS011;10938;44.794;-0.676;2023-05-07T05:50:27;16.48;;;4.45;;
21554;SDS011;10938;44.794;-0.676;2023-05-07T05:52:52;19.47;;;4.77;;
21554;SDS011;10938;44.794;-0.676;2023-05-07T05:55:18;17.67;;;4.47;;
21554;SDS011;10938;44.794;-0.676;2023-05-07T05:57:43;15.85;;;4.05;;
21554;SDS011;10938;44.794;-0.676;2023-05-07T06:00:18;18.60;;;3.83;;
21554;SDS011;10938;44.794;-0.676;2023-05-07T06:02:43;18.70;;;3.90;;
21554;SDS011;10938;44.794;-0.676;2023-05-07T06:05:09;15.32;;;3.90;;
21554;SDS011;10938;44.794;-0.676;2023-05-07T06:07:34;15.57;;;3.60;;
21554;SDS011;10938;44.794;-0.676;2023-05-07T06:10:00;13.60;;;3.97;;
21554;SDS011;10938;44.794;-0.676;2023-05-07T06:12:25;18.67;;;3.65;;
21554;SDS011;10938;44.794;-0.676;2023-05-07T06:14:50;17.60;;;4.20;;
21554;SDS011;10938;44.794;-0.676;2023-05-07T06:17:16;13.68;;;3.38;;
21554;SDS011;10938;44.794;-0.676;2023-05-07T06:19:41;13.80;;;3.83;;
21554;SDS011;10938;44.794;-0.676;2023-05-07T06:22:06;16.67;;;3.83;;
21554;SDS011;10938;44.794;-0.676;2023-05-07T06:24:32;16.58;;;3.90;;
21554;SDS011;10938;44.794;-0.676;2023-05-07T06:26:57;14.10;;;4.07;;
21554;SDS011;10938;44.794;-0.676;2023-05-07T06:29:23;16.83;;;3.83;;
21554;SDS011;10938;44.794;-0.676;2023-05-07T06:31:50;16.70;;;4.18;;
21554;SDS011;10938;44.794;-0.676;2023-05-07T06:34:15;13.67;;;3.77;;
21554;SDS011;10938;44.794;-0.676;2023-05-07T06:36:41;16.03;;;4.23;;
21554;SDS011;10938;44.794;-0.676;2023-05-07T06:39:06;17.40;;;4.28;;
21554;SDS011;10938;44.794;-0.676;2023-05-07T06:41:31;14.98;;;3.55;;
21554;SDS011;10938;44.794;-0.676;2023-05-07T06:43:57;16.65;;;4.03;;
21554;SDS011;10938;44.794;-0.676;2023-05-07T06:46:22;14.63;;;4.38;;
21554;SDS011;10938;44.794;-0.676;2023-05-07T06:48:48;15.43;;;4.20;;
21554;SDS011;10938;44.794;-0.676;2023-05-07T06:51:13;13.20;;;3.70;;
21554;SDS011;10938;44.794;-0.676;2023-05-07T06:53:38;12.57;;;3.70;;
21554;SDS011;10938;44.794;-0.676;2023-05-07T06:56:04;21.33;;;4.00;;
21554;SDS011;10938;44.794;-0.676;2023-05-07T06:58:29;19.27;;;3.90;;
21554;SDS011;10938;44.794;-0.676;2023-05-07T07:00:54;12.00;;;3.90;;
21554;SDS011;10938;44.794;-0.676;2023-05-07T07:03:20;17.90;;;3.93;;
21554;SDS011;10938;44.794;-0.676;2023-05-07T07:05:45;15.95;;;4.13;;
21554;SDS011;10938;44.794;-0.676;2023-05-07T07:08:11;15.15;;;3.67;;
21554;SDS011;10938;44.794;-0.676;2023-05-07T07:10:42;15.60;;;3.58;;
21554;SDS011;10938;44.794;-0.676;2023-05-07T07:13:10;14.27;;;3.40;;
21554;SDS011;10938;44.794;-0.676;2023-05-07T07:15:35;18.40;;;3.95;;
21554;SDS011;10938;44.794;-0.676;2023-05-07T07:18:01;12.30;;;3.03;;
21554;SDS011;10938;44.794;-0.676;2023-05-07T07:20:26;13.53;;;4.23;;
21554;SDS011;10938;44.794;-0.676;2023-05-07T07:22:52;11.63;;;3.20;;
21554;SDS011;10938;44.794;-0.676;2023-05-07T07:25:17;12.07;;;3.03;;
21554;SDS011;10938;44.794;-0.676;2023-05-07T07:27:42;13.43;;;4.10;;
21554;SDS011;10938;44.794;-0.676;2023-05-07T07:30:07;9.77;;;3.10;;
21554;SDS011;10938;44.794;-0.676;2023-05-07T07:32:33;11.23;;;3.53;;
21554;SDS011;10938;44.794;-0.676;2023-05-07T07:34:59;11.65;;;2.80;;
21554;SDS011;10938;44.794;-0.676;2023-05-07T07:37:24;9.48;;;3.00;;
21554;SDS011;10938;44.794;-0.676;2023-05-07T07:39:50;9.20;;;3.10;;
21554;SDS011;10938;44.794;-0.676;2023-05-07T07:42:15;12.17;;;4.10;;
21554;SDS011;10938;44.794;-0.676;2023-05-07T07:44:41;10.25;;;3.45;;
21554;SDS011;10938;44.794;-0.676;2023-05-07T07:47:06;11.02;;;3.25;;
21554;SDS011;10938;44.794;-0.676;2023-05-07T07:49:32;12.50;;;4.23;;
21554;SDS011;10938;44.794;-0.676;2023-05-07T07:51:57;11.35;;;3.58;;
21554;SDS011;10938;44.794;-0.676;2023-05-07T07:54:24;13.30;;;4.10;;
21554;SDS011;10938;44.794;-0.676;2023-05-07T07:56:49;11.00;;;4.00;;
21554;SDS011;10938;44.794;-0.676;2023-05-07T07:59:15;9.63;;;3.50;;
21554;SDS011;10938;44.794;-0.676;2023-05-07T08:01:43;10.23;;;3.95;;
21554;SDS011;10938;44.794;-0.676;2023-05-07T08:04:09;9.60;;;3.47;;
21554;SDS011;10938;44.794;-0.676;2023-05-07T08:06:34;9.07;;;3.50;;
21554;SDS011;10938;44.794;-0.676;2023-05-07T08:08:59;11.67;;;2.90;;
21554;SDS011;10938;44.794;-0.676;2023-05-07T08:11:25;9.75;;;3.10;;
21554;SDS011;10938;44.794;-0.676;2023-05-07T08:13:50;8.25;;;3.30;;
21554;SDS011;10938;44.794;-0.676;2023-05-07T08:16:15;11.38;;;3.92;;
21554;SDS011;10938;44.794;-0.676;2023-05-07T08:18:44;10.13;;;3.47;;
21554;SDS011;10938;44.794;-0.676;2023-05-07T08:21:09;11.35;;;3.63;;
21554;SDS011;10938;44.794;-0.676;2023-05-07T08:23:35;12.52;;;3.55;;
21554;SDS011;10938;44.794;-0.676;2023-05-07T08:26:00;10.20;;;3.70;;
21554;SDS011;10938;44.794;-0.676;2023-05-07T08:28:25;9.05;;;3.55;;
21554;SDS011;10938;44.794;-0.676;2023-05-07T08:30:51;9.87;;;3.70;;
21554;SDS011;10938;44.794;-0.676;2023-05-07T08:33:16;9.27;;;3.23;;
21554;SDS011;10938;44.794;-0.676;2023-05-07T08:35:41;8.50;;;3.27;;
21554;SDS011;10938;44.794;-0.676;2023-05-07T08:38:07;9.85;;;3.30;;
21554;SDS011;10938;44.794;-0.676;2023-05-07T08:40:34;11.30;;;3.87;;
21554;SDS011;10938;44.794;-0.676;2023-05-07T08:43:01;10.98;;;4.03;;
21554;SDS011;10938;44.794;-0.676;2023-05-07T08:45:27;8.88;;;4.00;;
21554;SDS011;10938;44.794;-0.676;2023-05-07T08:47:55;8.80;;;3.80;;
21554;SDS011;10938;44.794;-0.676;2023-05-07T08:50:22;11.27;;;4.18;;
21554;SDS011;10938;44.794;-0.676;2023-05-07T08:52:47;8.93;;;3.60;;
21554;SDS011;10938;44.794;-0.676;2023-05-07T08:55:13;13.52;;;3.95;;
21554;SDS011;10938;44.794;-0.676;2023-05-07T08:57:38;10.02;;;3.10;;
21554;SDS011;10938;44.794;-0.676;2023-05-07T09:00:04;10.70;;;3.27;;
21554;SDS011;10938;44.794;-0.676;2023-05-07T09:02:43;9.23;;;3.63;;
21554;SDS011;10938;44.794;-0.676;2023-05-07T09:05:09;9.75;;;3.45;;
21554;SDS011;10938;44.794;-0.676;2023-05-07T09:07:34;9.38;;;3.40;;
21554;SDS011;10938;44.794;-0.676;2023-05-07T09:10:03;9.10;;;3.47;;
21554;SDS011;10938;44.794;-0.676;2023-05-07T09:12:29;10.73;;;3.28;;
21554;SDS011;10938;44.794;-0.676;2023-05-07T09:14:54;9.52;;;2.92;;
21554;SDS011;10938;44.794;-0.676;2023-05-07T09:17:20;9.63;;;2.92;;
21554;SDS011;10938;44.794;-0.676;2023-05-07T09:19:45;7.10;;;3.00;;
21554;SDS011;10938;44.794;-0.676;2023-05-07T09:22:11;9.63;;;3.17;;
21554;SDS011;10938;44.794;-0.676;2023-05-07T09:24:36;11.82;;;3.15;;
21554;SDS011;10938;44.794;-0.676;2023-05-07T09:27:03;10.43;;;3.30;;
21554;SDS011;10938;44.794;-0.676;2023-05-07T09:29:29;11.70;;;3.38;;
21554;SDS011;10938;44.794;-0.676;2023-05-07T09:31:55;9.98;;;3.17;;
21554;SDS011;10938;44.794;-0.676;2023-05-07T09:34:20;9.40;;;3.13;;
21554;SDS011;10938;44.794;-0.676;2023-05-07T09:36:46;9.73;;;2.88;;
21554;SDS011;10938;44.794;-0.676;2023-05-07T09:39:12;9.30;;;3.03;;
21554;SDS011;10938;44.794;-0.676;2023-05-07T09:41:44;10.57;;;3.50;;
21554;SDS011;10938;44.794;-0.676;2023-05-07T09:44:10;10.63;;;3.05;;
21554;SDS011;10938;44.794;-0.676;2023-05-07T09:46:36;12.85;;;3.42;;
21554;SDS011;10938;44.794;-0.676;2023-05-07T09:49:02;10.43;;;3.25;;
21554;SDS011;10938;44.794;-0.676;2023-05-07T09:53:56;11.13;;;3.47;;
21554;SDS011;10938;44.794;-0.676;2023-05-07T09:56:22;9.52;;;3.33;;
21554;SDS011;10938;44.794;-0.676;2023-05-07T09:58:48;12.18;;;3.63;;
21554;SDS011;10938;44.794;-0.676;2023-05-07T10:01:15;11.40;;;3.72;;
21554;SDS011;10938;44.794;-0.676;2023-05-07T10:03:42;7.15;;;2.83;;
21554;SDS011;10938;44.794;-0.676;2023-05-07T10:06:09;7.95;;;3.00;;
21554;SDS011;10938;44.794;-0.676;2023-05-07T10:08:35;9.02;;;2.88;;
21554;SDS011;10938;44.794;-0.676;2023-05-07T10:11:01;10.13;;;3.15;;
21554;SDS011;10938;44.794;-0.676;2023-05-07T10:13:26;10.05;;;3.38;;
21554;SDS011;10938;44.794;-0.676;2023-05-07T10:15:55;11.60;;;3.10;;
21554;SDS011;10938;44.794;-0.676;2023-05-07T10:18:21;9.60;;;3.00;;
21554;SDS011;10938;44.794;-0.676;2023-05-07T10:20:54;10.98;;;2.83;;
21554;SDS011;10938;44.794;-0.676;2023-05-07T10:23:22;8.80;;;3.42;;
21554;SDS011;10938;44.794;-0.676;2023-05-07T10:25:48;10.63;;;3.30;;
21554;SDS011;10938;44.794;-0.676;2023-05-07T10:28:14;10.53;;;3.80;;
21554;SDS011;10938;44.794;-0.676;2023-05-07T10:30:44;14.52;;;8.98;;
21554;SDS011;10938;44.794;-0.676;2023-05-07T10:33:16;10.25;;;4.82;;
21554;SDS011;10938;44.794;-0.676;2023-05-07T10:35:43;14.35;;;5.13;;
21554;SDS011;10938;44.794;-0.676;2023-05-07T10:38:08;11.50;;;3.72;;
21554;SDS011;10938;44.794;-0.676;2023-05-07T10:40:34;9.52;;;3.47;;
21554;SDS011;10938;44.794;-0.676;2023-05-07T10:43:00;9.85;;;3.42;;
21554;SDS011;10938;44.794;-0.676;2023-05-07T10:45:27;9.35;;;3.25;;
21554;SDS011;10938;44.794;-0.676;2023-05-07T10:50:37;8.52;;;3.35;;
21554;SDS011;10938;44.794;-0.676;2023-05-07T10:53:26;10.15;;;3.60;;
21554;SDS011;10938;44.794;-0.676;2023-05-07T10:56:25;12.57;;;5.53;;
21554;SDS011;10938;44.794;-0.676;2023-05-07T10:58:43;17.85;;;8.30;;
21554;SDS011;10938;44.794;-0.676;2023-05-07T11:01:09;17.90;;;8.50;;
21554;SDS011;10938;44.794;-0.676;2023-05-07T11:03:36;13.68;;;4.05;;
21554;SDS011;10938;44.794;-0.676;2023-05-07T11:06:21;9.40;;;3.97;;
21554;SDS011;10938;44.794;-0.676;2023-05-07T11:11:17;10.35;;;3.38;;
21554;SDS011;10938;44.794;-0.676;2023-05-07T11:13:47;15.77;;;5.88;;
21554;SDS011;10938;44.794;-0.676;2023-05-07T11:16:22;19.17;;;9.80;;
21554;SDS011;10938;44.794;-0.676;2023-05-07T11:18:48;35.83;;;21.02;;
21554;SDS011;10938;44.794;-0.676;2023-05-07T11:24:02;23.70;;;16.00;;
21554;SDS011;10938;44.794;-0.676;2023-05-07T11:26:29;12.90;;;5.47;;
21554;SDS011;10938;44.794;-0.676;2023-05-07T11:28:56;14.48;;;5.20;;
21554;SDS011;10938;44.794;-0.676;2023-05-07T11:31:23;23.00;;;14.00;;
21554;SDS011;10938;44.794;-0.676;2023-05-07T11:33:48;13.07;;;5.07;;
21554;SDS011;10938;44.794;-0.676;2023-05-07T11:36:14;13.32;;;5.30;;
21554;SDS011;10938;44.794;-0.676;2023-05-07T11:38:40;10.65;;;4.10;;
21554;SDS011;10938;44.794;-0.676;2023-05-07T11:41:05;11.20;;;4.10;;
21554;SDS011;10938;44.794;-0.676;2023-05-07T11:43:33;11.30;;;3.90;;
21554;SDS011;10938;44.794;-0.676;2023-05-07T11:46:09;13.52;;;4.20;;
21554;SDS011;10938;44.794;-0.676;2023-05-07T11:48:35;10.70;;;3.77;;
21554;SDS011;10938;44.794;-0.676;2023-05-07T11:51:02;11.90;;;3.60;;
21554;SDS011;10938;44.794;-0.676;2023-05-07T11:53:31;10.27;;;3.60;;
21554;SDS011;10938;44.794;-0.676;2023-05-07T11:56:00;10.48;;;3.15;;
21554;SDS011;10938;44.794;-0.676;2023-05-07T11:58:25;13.63;;;3.47;;
21554;SDS011;10938;44.794;-0.676;2023-05-07T12:01:00;15.98;;;3.83;;
21554;SDS011;10938;44.794;-0.676;2023-05-07T12:03:25;13.52;;;3.95;;
21554;SDS011;10938;44.794;-0.676;2023-05-07T12:05:50;10.87;;;3.90;;
21554;SDS011;10938;44.794;-0.676;2023-05-07T12:08:16;14.50;;;4.00;;
21554;SDS011;10938;44.794;-0.676;2023-05-07T12:10:42;11.43;;;3.13;;
21554;SDS011;10938;44.794;-0.676;2023-05-07T12:13:17;9.63;;;3.08;;
21554;SDS011;10938;44.794;-0.676;2023-05-07T12:15:42;11.77;;;3.20;;
21554;SDS011;10938;44.794;-0.676;2023-05-07T12:18:08;12.50;;;3.55;;
21554;SDS011;10938;44.794;-0.676;2023-05-07T12:20:34;11.85;;;3.70;;
21554;SDS011;10938;44.794;-0.676;2023-05-07T12:23:01;10.45;;;3.60;;
21554;SDS011;10938;44.794;-0.676;2023-05-07T12:25:26;12.77;;;3.28;;
21554;SDS011;10938;44.794;-0.676;2023-05-07T12:27:54;10.75;;;2.92;;
21554;SDS011;10938;44.794;-0.676;2023-05-07T12:30:23;9.82;;;3.20;;
21554;SDS011;10938;44.794;-0.676;2023-05-07T12:32:51;12.60;;;3.47;;
21554;SDS011;10938;44.794;-0.676;2023-05-07T12:35:17;8.57;;;3.20;;
21554;SDS011;10938;44.794;-0.676;2023-05-07T12:37:42;9.43;;;3.33;;
21554;SDS011;10938;44.794;-0.676;2023-05-07T12:40:09;9.10;;;3.30;;
21554;SDS011;10938;44.794;-0.676;2023-05-07T12:42:35;11.02;;;3.17;;
21554;SDS011;10938;44.794;-0.676;2023-05-07T12:45:07;8.57;;;3.03;;
21554;SDS011;10938;44.794;-0.676;2023-05-07T12:47:32;9.95;;;2.97;;
21554;SDS011;10938;44.794;-0.676;2023-05-07T12:49:58;12.10;;;3.28;;
21554;SDS011;10938;44.794;-0.676;2023-05-07T12:52:24;9.40;;;2.90;;
21554;SDS011;10938;44.794;-0.676;2023-05-07T12:54:49;10.80;;;3.30;;
21554;SDS011;10938;44.794;-0.676;2023-05-07T12:57:14;9.43;;;3.10;;
21554;SDS011;10938;44.794;-0.676;2023-05-07T12:59:44;13.52;;;3.42;;
21554;SDS011;10938;44.794;-0.676;2023-05-07T13:02:09;13.52;;;3.42;;
21554;SDS011;10938;44.794;-0.676;2023-05-07T13:04:35;13.13;;;3.50;;
21554;SDS011;10938;44.794;-0.676;2023-05-07T13:07:00;11.88;;;3.88;;
21554;SDS011;10938;44.794;-0.676;2023-05-07T13:09:26;8.23;;;3.22;;
21554;SDS011;10938;44.794;-0.676;2023-05-07T13:11:51;10.63;;;3.67;;
21554;SDS011;10938;44.794;-0.676;2023-05-07T13:14:16;12.30;;;3.70;;
21554;SDS011;10938;44.794;-0.676;2023-05-07T13:16:41;15.20;;;3.67;;
21554;SDS011;10938;44.794;-0.676;2023-05-07T13:19:10;12.93;;;3.42;;
21554;SDS011;10938;44.794;-0.676;2023-05-07T13:21:36;13.32;;;4.13;;
21554;SDS011;10938;44.794;-0.676;2023-05-07T13:24:01;11.37;;;3.23;;
21554;SDS011;10938;44.794;-0.676;2023-05-07T13:26:26;13.23;;;3.47;;
21554;SDS011;10938;44.794;-0.676;2023-05-07T13:28:54;9.18;;;3.08;;
21554;SDS011;10938;44.794;-0.676;2023-05-07T13:31:20;15.25;;;3.42;;
21554;SDS011;10938;44.794;-0.676;2023-05-07T13:33:46;11.90;;;3.38;;
21554;SDS011;10938;44.794;-0.676;2023-05-07T13:36:11;9.82;;;3.00;;
21554;SDS011;10938;44.794;-0.676;2023-05-07T13:38:36;10.93;;;3.17;;
21554;SDS011;10938;44.794;-0.676;2023-05-07T13:41:02;8.33;;;2.70;;
21554;SDS011;10938;44.794;-0.676;2023-05-07T13:43:27;9.45;;;2.63;;
21554;SDS011;10938;44.794;-0.676;2023-05-07T13:45:53;11.03;;;3.00;;
21554;SDS011;10938;44.794;-0.676;2023-05-07T13:48:18;11.50;;;3.47;;
21554;SDS011;10938;44.794;-0.676;2023-05-07T13:50:43;9.10;;;3.03;;
21554;SDS011;10938;44.794;-0.676;2023-05-07T13:53:09;10.35;;;3.30;;
21554;SDS011;10938;44.794;-0.676;2023-05-07T13:55:34;12.55;;;3.67;;
21554;SDS011;10938;44.794;-0.676;2023-05-07T13:58:00;12.07;;;3.50;;
21554;SDS011;10938;44.794;-0.676;2023-05-07T14:00:26;11.20;;;3.50;;
21554;SDS011;10938;44.794;-0.676;2023-05-07T14:02:52;12.45;;;3.13;;
21554;SDS011;10938;44.794;-0.676;2023-05-07T14:05:20;12.02;;;3.67;;
21554;SDS011;10938;44.794;-0.676;2023-05-07T14:07:45;12.98;;;3.33;;
21554;SDS011;10938;44.794;-0.676;2023-05-07T14:10:12;14.15;;;4.13;;
21554;SDS011;10938;44.794;-0.676;2023-05-07T14:12:38;14.10;;;3.63;;
21554;SDS011;10938;44.794;-0.676;2023-05-07T14:15:06;9.80;;;3.17;;
21554;SDS011;10938;44.794;-0.676;2023-05-07T14:17:32;9.75;;;3.17;;
21554;SDS011;10938;44.794;-0.676;2023-05-07T14:19:57;13.70;;;3.23;;
21554;SDS011;10938;44.794;-0.676;2023-05-07T14:22:22;11.83;;;3.27;;
21554;SDS011;10938;44.794;-0.676;2023-05-07T14:24:48;12.00;;;3.30;;
21554;SDS011;10938;44.794;-0.676;2023-05-07T14:27:14;11.07;;;3.28;;
21554;SDS011;10938;44.794;-0.676;2023-05-07T14:29:39;10.88;;;2.70;;
21554;SDS011;10938;44.794;-0.676;2023-05-07T14:32:04;9.10;;;2.93;;
21554;SDS011;10938;44.794;-0.676;2023-05-07T14:34:30;14.25;;;3.60;;